sensor_id;sensor_type;location;lat;lon;timestamp;P1;durP1;ratioP1;P2;durP2;ratioP2
12880;SDS011;6508;53.786;9.996;2024-03-07T00:00:02;39.63;;;22.95;;
12880;SDS011;6508;53.786;9.996;2024-03-07T00:02:37;34.50;;;21.70;;
12880;SDS011;6508;53.786;9.996;2024-03-07T00:05:06;35.05;;;22.98;;
12880;SDS011;6508;53.786;9.996;2024-03-07T00:07:34;32.13;;;21.85;;
12880;SDS011;6508;53.786;9.996;2024-03-07T00:10:02;34.85;;;21.33;;
12880;SDS011;6508;53.786;9.996;2024-03-07T00:12:33;33.05;;;21.90;;
12880;SDS011;6508;53.786;9.996;2024-03-07T00:15:01;31.63;;;21.27;;
12880;SDS011;6508;53.786;9.996;2024-03-07T00:17:29;31.30;;;21.23;;
12880;SDS011;6508;53.786;9.996;2024-03-07T00:19:57;30.55;;;19.88;;
12880;SDS011;6508;53.786;9.996;2024-03-07T00:22:26;32.83;;;21.48;;
12880;SDS011;6508;53.786;9.996;2024-03-07T00:24:56;32.88;;;21.20;;
12880;SDS011;6508;53.786;9.996;2024-03-07T00:27:24;32.25;;;21.08;;
12880;SDS011;6508;53.786;9.996;2024-03-07T00:29:52;37.60;;;21.98;;
12880;SDS011;6508;53.786;9.996;2024-03-07T00:32:20;33.15;;;21.40;;
12880;SDS011;6508;53.786;9.996;2024-03-07T00:34:48;36.60;;;22.45;;
12880;SDS011;6508;53.786;9.996;2024-03-07T00:37:16;36.55;;;22.25;;
12880;SDS011;6508;53.786;9.996;2024-03-07T00:39:45;41.78;;;22.95;;
12880;SDS011;6508;53.786;9.996;2024-03-07T00:42:13;33.72;;;21.42;;
12880;SDS011;6508;53.786;9.996;2024-03-07T00:44:41;28.92;;;21.10;;
12880;SDS011;6508;53.786;9.996;2024-03-07T00:47:08;32.15;;;21.67;;
12880;SDS011;6508;53.786;9.996;2024-03-07T00:49:36;35.67;;;21.92;;
12880;SDS011;6508;53.786;9.996;2024-03-07T00:52:04;28.42;;;21.33;;
12880;SDS011;6508;53.786;9.996;2024-03-07T00:54:32;34.78;;;22.63;;
12880;SDS011;6508;53.786;9.996;2024-03-07T00:57:01;33.28;;;21.88;;
12880;SDS011;6508;53.786;9.996;2024-03-07T00:59:30;35.60;;;22.02;;
12880;SDS011;6508;53.786;9.996;2024-03-07T01:01:58;33.67;;;22.33;;
12880;SDS011;6508;53.786;9.996;2024-03-07T01:04:26;31.58;;;22.00;;
12880;SDS011;6508;53.786;9.996;2024-03-07T01:06:57;32.78;;;21.42;;
12880;SDS011;6508;53.786;9.996;2024-03-07T01:09:25;34.67;;;21.75;;
12880;SDS011;6508;53.786;9.996;2024-03-07T01:11:54;33.53;;;21.75;;
12880;SDS011;6508;53.786;9.996;2024-03-07T01:14:24;32.65;;;22.30;;
12880;SDS011;6508;53.786;9.996;2024-03-07T01:16:51;34.00;;;22.42;;
12880;SDS011;6508;53.786;9.996;2024-03-07T01:19:20;32.22;;;21.67;;
12880;SDS011;6508;53.786;9.996;2024-03-07T01:21:47;30.95;;;22.55;;
12880;SDS011;6508;53.786;9.996;2024-03-07T01:24:15;28.15;;;21.17;;
12880;SDS011;6508;53.786;9.996;2024-03-07T01:26:44;34.75;;;21.92;;
12880;SDS011;6508;53.786;9.996;2024-03-07T01:29:12;31.60;;;21.88;;
12880;SDS011;6508;53.786;9.996;2024-03-07T01:31:41;35.88;;;22.13;;
12880;SDS011;6508;53.786;9.996;2024-03-07T01:34:10;34.25;;;22.60;;
12880;SDS011;6508;53.786;9.996;2024-03-07T01:36:38;31.58;;;21.42;;
12880;SDS011;6508;53.786;9.996;2024-03-07T01:39:06;35.03;;;22.73;;
12880;SDS011;6508;53.786;9.996;2024-03-07T01:41:34;33.10;;;21.95;;
12880;SDS011;6508;53.786;9.996;2024-03-07T01:44:02;35.35;;;22.23;;
12880;SDS011;6508;53.786;9.996;2024-03-07T01:46:30;35.17;;;22.35;;
12880;SDS011;6508;53.786;9.996;2024-03-07T01:48:59;32.30;;;21.63;;
12880;SDS011;6508;53.786;9.996;2024-03-07T01:51:27;36.55;;;22.50;;
12880;SDS011;6508;53.786;9.996;2024-03-07T01:53:55;34.05;;;22.02;;
12880;SDS011;6508;53.786;9.996;2024-03-07T01:56:22;30.60;;;22.25;;
12880;SDS011;6508;53.786;9.996;2024-03-07T01:58:50;33.72;;;23.55;;
12880;SDS011;6508;53.786;9.996;2024-03-07T02:01:19;38.53;;;22.33;;
12880;SDS011;6508;53.786;9.996;2024-03-07T02:03:47;34.58;;;22.83;;
12880;SDS011;6508;53.786;9.996;2024-03-07T02:06:16;32.10;;;21.05;;
12880;SDS011;6508;53.786;9.996;2024-03-07T02:08:44;30.13;;;21.33;;
12880;SDS011;6508;53.786;9.996;2024-03-07T02:11:12;29.15;;;20.33;;
12880;SDS011;6508;53.786;9.996;2024-03-07T02:13:40;28.02;;;19.05;;
12880;SDS011;6508;53.786;9.996;2024-03-07T02:16:08;22.95;;;18.60;;
12880;SDS011;6508;53.786;9.996;2024-03-07T02:18:36;24.42;;;19.48;;
12880;SDS011;6508;53.786;9.996;2024-03-07T02:21:07;27.42;;;19.35;;
12880;SDS011;6508;53.786;9.996;2024-03-07T02:23:35;25.00;;;18.83;;
12880;SDS011;6508;53.786;9.996;2024-03-07T02:26:03;21.80;;;17.90;;
12880;SDS011;6508;53.786;9.996;2024-03-07T02:28:31;26.33;;;19.48;;
12880;SDS011;6508;53.786;9.996;2024-03-07T02:31:02;27.13;;;17.60;;
12880;SDS011;6508;53.786;9.996;2024-03-07T02:33:30;23.55;;;17.75;;
12880;SDS011;6508;53.786;9.996;2024-03-07T02:36:02;24.17;;;17.33;;
12880;SDS011;6508;53.786;9.996;2024-03-07T02:38:31;21.10;;;17.23;;
12880;SDS011;6508;53.786;9.996;2024-03-07T02:40:59;24.90;;;18.60;;
12880;SDS011;6508;53.786;9.996;2024-03-07T02:43:26;19.98;;;17.45;;
12880;SDS011;6508;53.786;9.996;2024-03-07T02:45:54;24.25;;;18.77;;
12880;SDS011;6508;53.786;9.996;2024-03-07T02:48:22;19.58;;;17.35;;
12880;SDS011;6508;53.786;9.996;2024-03-07T02:50:50;21.00;;;17.48;;
12880;SDS011;6508;53.786;9.996;2024-03-07T02:53:18;21.25;;;18.42;;
12880;SDS011;6508;53.786;9.996;2024-03-07T02:55:46;20.13;;;18.13;;
12880;SDS011;6508;53.786;9.996;2024-03-07T02:58:14;21.52;;;18.27;;
12880;SDS011;6508;53.786;9.996;2024-03-07T03:00:45;18.25;;;16.35;;
12880;SDS011;6508;53.786;9.996;2024-03-07T03:03:13;20.73;;;17.30;;
12880;SDS011;6508;53.786;9.996;2024-03-07T03:05:40;22.73;;;17.30;;
12880;SDS011;6508;53.786;9.996;2024-03-07T03:08:07;25.98;;;16.90;;
12880;SDS011;6508;53.786;9.996;2024-03-07T03:10:36;19.63;;;17.55;;
12880;SDS011;6508;53.786;9.996;2024-03-07T03:13:05;20.48;;;17.17;;
12880;SDS011;6508;53.786;9.996;2024-03-07T03:15:34;21.13;;;17.90;;
12880;SDS011;6508;53.786;9.996;2024-03-07T03:18:04;21.23;;;18.23;;
12880;SDS011;6508;53.786;9.996;2024-03-07T03:20:32;18.90;;;16.85;;
12880;SDS011;6508;53.786;9.996;2024-03-07T03:23:02;20.33;;;18.23;;
12880;SDS011;6508;53.786;9.996;2024-03-07T03:25:33;19.38;;;17.45;;
12880;SDS011;6508;53.786;9.996;2024-03-07T03:28:06;19.00;;;17.08;;
12880;SDS011;6508;53.786;9.996;2024-03-07T03:30:37;19.05;;;17.05;;
12880;SDS011;6508;53.786;9.996;2024-03-07T03:33:04;18.75;;;16.73;;
12880;SDS011;6508;53.786;9.996;2024-03-07T03:35:33;19.55;;;17.52;;
12880;SDS011;6508;53.786;9.996;2024-03-07T03:38:01;20.80;;;18.58;;
12880;SDS011;6508;53.786;9.996;2024-03-07T03:40:29;20.75;;;18.55;;
12880;SDS011;6508;53.786;9.996;2024-03-07T03:42:59;19.80;;;17.88;;
12880;SDS011;6508;53.786;9.996;2024-03-07T03:45:28;20.23;;;18.02;;
12880;SDS011;6508;53.786;9.996;2024-03-07T03:47:58;23.02;;;18.50;;
12880;SDS011;6508;53.786;9.996;2024-03-07T03:50:26;21.77;;;18.00;;
12880;SDS011;6508;53.786;9.996;2024-03-07T03:52:55;20.35;;;18.42;;
12880;SDS011;6508;53.786;9.996;2024-03-07T03:55:24;22.05;;;18.75;;
12880;SDS011;6508;53.786;9.996;2024-03-07T03:57:51;23.55;;;18.20;;
12880;SDS011;6508;53.786;9.996;2024-03-07T04:00:20;21.27;;;18.80;;
12880;SDS011;6508;53.786;9.996;2024-03-07T04:02:51;21.05;;;18.25;;
12880;SDS011;6508;53.786;9.996;2024-03-07T04:05:19;19.65;;;17.70;;
12880;SDS011;6508;53.786;9.996;2024-03-07T04:07:48;19.23;;;17.42;;
12880;SDS011;6508;53.786;9.996;2024-03-07T04:10:16;21.73;;;18.38;;
12880;SDS011;6508;53.786;9.996;2024-03-07T04:12:44;20.08;;;18.08;;
12880;SDS011;6508;53.786;9.996;2024-03-07T04:15:12;20.60;;;18.50;;
12880;SDS011;6508;53.786;9.996;2024-03-07T04:17:42;19.52;;;17.67;;
12880;SDS011;6508;53.786;9.996;2024-03-07T04:20:12;20.15;;;17.95;;
12880;SDS011;6508;53.786;9.996;2024-03-07T04:22:40;19.08;;;17.25;;
12880;SDS011;6508;53.786;9.996;2024-03-07T04:25:08;20.02;;;17.92;;
12880;SDS011;6508;53.786;9.996;2024-03-07T04:27:37;20.25;;;18.23;;
12880;SDS011;6508;53.786;9.996;2024-03-07T04:30:06;21.83;;;18.25;;
12880;SDS011;6508;53.786;9.996;2024-03-07T04:32:36;20.42;;;18.45;;
12880;SDS011;6508;53.786;9.996;2024-03-07T04:35:04;19.55;;;17.55;;
12880;SDS011;6508;53.786;9.996;2024-03-07T04:37:39;20.08;;;17.95;;
12880;SDS011;6508;53.786;9.996;2024-03-07T04:40:08;20.38;;;17.90;;
12880;SDS011;6508;53.786;9.996;2024-03-07T04:42:44;20.50;;;18.40;;
12880;SDS011;6508;53.786;9.996;2024-03-07T04:45:12;18.83;;;16.92;;
12880;SDS011;6508;53.786;9.996;2024-03-07T04:47:41;18.83;;;17.02;;
12880;SDS011;6508;53.786;9.996;2024-03-07T04:50:09;18.35;;;16.45;;
12880;SDS011;6508;53.786;9.996;2024-03-07T04:52:39;21.85;;;17.30;;
12880;SDS011;6508;53.786;9.996;2024-03-07T04:55:07;19.80;;;17.80;;
12880;SDS011;6508;53.786;9.996;2024-03-07T04:57:36;19.58;;;17.60;;
12880;SDS011;6508;53.786;9.996;2024-03-07T05:00:09;19.33;;;17.52;;
12880;SDS011;6508;53.786;9.996;2024-03-07T05:02:41;20.10;;;17.45;;
12880;SDS011;6508;53.786;9.996;2024-03-07T05:05:10;20.25;;;18.17;;
12880;SDS011;6508;53.786;9.996;2024-03-07T05:07:39;23.63;;;18.88;;
12880;SDS011;6508;53.786;9.996;2024-03-07T05:10:08;19.70;;;17.73;;
12880;SDS011;6508;53.786;9.996;2024-03-07T05:12:35;20.38;;;17.77;;
12880;SDS011;6508;53.786;9.996;2024-03-07T05:15:04;21.33;;;19.13;;
12880;SDS011;6508;53.786;9.996;2024-03-07T05:17:32;20.43;;;18.50;;
12880;SDS011;6508;53.786;9.996;2024-03-07T05:20:03;20.97;;;18.97;;
12880;SDS011;6508;53.786;9.996;2024-03-07T05:22:36;20.70;;;18.60;;
12880;SDS011;6508;53.786;9.996;2024-03-07T05:25:08;21.13;;;18.85;;
12880;SDS011;6508;53.786;9.996;2024-03-07T05:27:36;22.00;;;19.73;;
12880;SDS011;6508;53.786;9.996;2024-03-07T05:30:05;21.83;;;19.70;;
12880;SDS011;6508;53.786;9.996;2024-03-07T05:32:37;20.73;;;18.60;;
12880;SDS011;6508;53.786;9.996;2024-03-07T05:35:06;23.92;;;19.65;;
12880;SDS011;6508;53.786;9.996;2024-03-07T05:37:34;21.25;;;19.23;;
12880;SDS011;6508;53.786;9.996;2024-03-07T05:40:02;20.77;;;18.67;;
12880;SDS011;6508;53.786;9.996;2024-03-07T05:42:32;19.80;;;18.00;;
12880;SDS011;6508;53.786;9.996;2024-03-07T05:44:59;20.27;;;18.37;;
12880;SDS011;6508;53.786;9.996;2024-03-07T05:47:28;21.55;;;19.25;;
12880;SDS011;6508;53.786;9.996;2024-03-07T05:49:55;22.30;;;20.02;;
12880;SDS011;6508;53.786;9.996;2024-03-07T05:52:23;21.35;;;19.05;;
12880;SDS011;6508;53.786;9.996;2024-03-07T05:54:51;22.85;;;20.60;;
12880;SDS011;6508;53.786;9.996;2024-03-07T05:57:17;21.63;;;19.55;;
12880;SDS011;6508;53.786;9.996;2024-03-07T05:59:46;21.77;;;19.63;;
12880;SDS011;6508;53.786;9.996;2024-03-07T06:02:15;21.42;;;19.35;;
12880;SDS011;6508;53.786;9.996;2024-03-07T06:04:43;23.17;;;19.03;;
12880;SDS011;6508;53.786;9.996;2024-03-07T06:07:10;21.17;;;19.10;;
12880;SDS011;6508;53.786;9.996;2024-03-07T06:09:38;21.77;;;19.88;;
12880;SDS011;6508;53.786;9.996;2024-03-07T06:12:07;20.17;;;18.33;;
12880;SDS011;6508;53.786;9.996;2024-03-07T06:14:49;22.27;;;19.43;;
12880;SDS011;6508;53.786;9.996;2024-03-07T06:17:17;20.95;;;19.15;;
12880;SDS011;6508;53.786;9.996;2024-03-07T06:19:48;21.27;;;19.35;;
12880;SDS011;6508;53.786;9.996;2024-03-07T06:22:16;22.05;;;19.52;;
12880;SDS011;6508;53.786;9.996;2024-03-07T06:24:44;20.27;;;18.33;;
12880;SDS011;6508;53.786;9.996;2024-03-07T06:27:11;20.53;;;18.23;;
12880;SDS011;6508;53.786;9.996;2024-03-07T06:29:43;20.73;;;18.73;;
12880;SDS011;6508;53.786;9.996;2024-03-07T06:32:12;20.67;;;18.70;;
12880;SDS011;6508;53.786;9.996;2024-03-07T06:34:40;21.45;;;19.30;;
12880;SDS011;6508;53.786;9.996;2024-03-07T06:37:08;19.98;;;18.13;;
12880;SDS011;6508;53.786;9.996;2024-03-07T06:39:36;20.77;;;18.67;;
12880;SDS011;6508;53.786;9.996;2024-03-07T06:42:03;20.43;;;18.37;;
12880;SDS011;6508;53.786;9.996;2024-03-07T06:44:33;20.63;;;18.02;;
12880;SDS011;6508;53.786;9.996;2024-03-07T06:47:00;18.70;;;16.83;;
12880;SDS011;6508;53.786;9.996;2024-03-07T06:49:29;19.80;;;18.00;;
12880;SDS011;6508;53.786;9.996;2024-03-07T06:51:58;18.65;;;17.08;;
12880;SDS011;6508;53.786;9.996;2024-03-07T06:54:26;20.17;;;18.27;;
12880;SDS011;6508;53.786;9.996;2024-03-07T06:56:53;18.70;;;17.00;;
12880;SDS011;6508;53.786;9.996;2024-03-07T06:59:21;20.05;;;17.70;;
12880;SDS011;6508;53.786;9.996;2024-03-07T07:01:49;18.52;;;16.73;;
12880;SDS011;6508;53.786;9.996;2024-03-07T07:04:17;20.15;;;18.00;;
12880;SDS011;6508;53.786;9.996;2024-03-07T07:06:47;19.10;;;17.33;;
12880;SDS011;6508;53.786;9.996;2024-03-07T07:09:15;18.88;;;17.05;;
12880;SDS011;6508;53.786;9.996;2024-03-07T07:11:47;18.33;;;16.50;;
12880;SDS011;6508;53.786;9.996;2024-03-07T07:14:15;19.95;;;17.77;;
12880;SDS011;6508;53.786;9.996;2024-03-07T07:16:47;19.48;;;16.05;;
12880;SDS011;6508;53.786;9.996;2024-03-07T07:19:15;17.92;;;16.23;;
12880;SDS011;6508;53.786;9.996;2024-03-07T07:21:43;17.65;;;16.15;;
12880;SDS011;6508;53.786;9.996;2024-03-07T07:24:12;18.02;;;16.23;;
12880;SDS011;6508;53.786;9.996;2024-03-07T07:26:40;18.13;;;16.13;;
12880;SDS011;6508;53.786;9.996;2024-03-07T07:29:07;19.58;;;17.63;;
12880;SDS011;6508;53.786;9.996;2024-03-07T07:31:35;22.73;;;20.42;;
12880;SDS011;6508;53.786;9.996;2024-03-07T07:34:03;17.75;;;16.20;;
12880;SDS011;6508;53.786;9.996;2024-03-07T07:36:32;17.83;;;16.17;;
12880;SDS011;6508;53.786;9.996;2024-03-07T07:39:00;16.50;;;15.00;;
12880;SDS011;6508;53.786;9.996;2024-03-07T07:41:31;32.80;;;23.27;;
12880;SDS011;6508;53.786;9.996;2024-03-07T07:43:59;18.35;;;16.52;;
12880;SDS011;6508;53.786;9.996;2024-03-07T07:46:27;15.38;;;14.15;;
12880;SDS011;6508;53.786;9.996;2024-03-07T07:48:54;16.20;;;14.45;;
12880;SDS011;6508;53.786;9.996;2024-03-07T07:51:22;18.80;;;16.75;;
12880;SDS011;6508;53.786;9.996;2024-03-07T07:53:51;26.50;;;19.60;;
12880;SDS011;6508;53.786;9.996;2024-03-07T07:56:20;27.85;;;20.10;;
12880;SDS011;6508;53.786;9.996;2024-03-07T07:58:53;16.80;;;14.75;;
12880;SDS011;6508;53.786;9.996;2024-03-07T08:01:20;17.42;;;15.73;;
12880;SDS011;6508;53.786;9.996;2024-03-07T08:03:48;18.20;;;16.25;;
12880;SDS011;6508;53.786;9.996;2024-03-07T08:06:16;33.00;;;26.92;;
12880;SDS011;6508;53.786;9.996;2024-03-07T08:08:44;16.33;;;14.65;;
12880;SDS011;6508;53.786;9.996;2024-03-07T08:11:14;24.60;;;18.20;;
12880;SDS011;6508;53.786;9.996;2024-03-07T08:13:42;26.10;;;20.50;;
12880;SDS011;6508;53.786;9.996;2024-03-07T08:16:11;26.80;;;19.25;;
12880;SDS011;6508;53.786;9.996;2024-03-07T08:18:40;17.95;;;14.68;;
12880;SDS011;6508;53.786;9.996;2024-03-07T08:21:07;28.30;;;23.10;;
12880;SDS011;6508;53.786;9.996;2024-03-07T08:23:37;17.48;;;15.60;;
12880;SDS011;6508;53.786;9.996;2024-03-07T08:26:05;15.80;;;14.20;;
12880;SDS011;6508;53.786;9.996;2024-03-07T08:28:32;17.50;;;15.15;;
12880;SDS011;6508;53.786;9.996;2024-03-07T08:31:01;17.55;;;14.35;;
12880;SDS011;6508;53.786;9.996;2024-03-07T08:33:32;16.55;;;14.82;;
12880;SDS011;6508;53.786;9.996;2024-03-07T08:36:00;14.77;;;13.27;;
12880;SDS011;6508;53.786;9.996;2024-03-07T08:38:28;17.50;;;15.40;;
12880;SDS011;6508;53.786;9.996;2024-03-07T08:40:56;16.25;;;14.35;;
12880;SDS011;6508;53.786;9.996;2024-03-07T08:43:24;17.25;;;14.60;;
12880;SDS011;6508;53.786;9.996;2024-03-07T08:45:53;16.45;;;14.38;;
12880;SDS011;6508;53.786;9.996;2024-03-07T08:48:21;15.30;;;13.52;;
12880;SDS011;6508;53.786;9.996;2024-03-07T08:50:50;16.45;;;14.75;;
12880;SDS011;6508;53.786;9.996;2024-03-07T08:53:18;17.98;;;16.08;;
12880;SDS011;6508;53.786;9.996;2024-03-07T08:55:46;16.98;;;15.27;;
12880;SDS011;6508;53.786;9.996;2024-03-07T08:58:14;28.58;;;21.08;;
12880;SDS011;6508;53.786;9.996;2024-03-07T09:00:41;21.83;;;16.83;;
12880;SDS011;6508;53.786;9.996;2024-03-07T09:03:14;26.55;;;21.67;;
12880;SDS011;6508;53.786;9.996;2024-03-07T09:05:41;26.23;;;19.38;;
12880;SDS011;6508;53.786;9.996;2024-03-07T09:08:10;23.08;;;19.63;;
12880;SDS011;6508;53.786;9.996;2024-03-07T09:10:38;23.85;;;18.92;;
12880;SDS011;6508;53.786;9.996;2024-03-07T09:13:09;23.65;;;17.17;;
12880;SDS011;6508;53.786;9.996;2024-03-07T09:15:37;22.38;;;17.55;;
12880;SDS011;6508;53.786;9.996;2024-03-07T09:18:05;20.88;;;18.45;;
12880;SDS011;6508;53.786;9.996;2024-03-07T09:20:35;22.55;;;19.50;;
12880;SDS011;6508;53.786;9.996;2024-03-07T09:23:03;52.58;;;32.38;;
12880;SDS011;6508;53.786;9.996;2024-03-07T09:25:32;32.90;;;25.55;;
12880;SDS011;6508;53.786;9.996;2024-03-07T09:28:01;54.28;;;32.63;;
12880;SDS011;6508;53.786;9.996;2024-03-07T09:30:28;34.60;;;24.45;;
12880;SDS011;6508;53.786;9.996;2024-03-07T09:32:57;31.00;;;22.85;;
12880;SDS011;6508;53.786;9.996;2024-03-07T09:35:25;34.85;;;22.30;;
12880;SDS011;6508;53.786;9.996;2024-03-07T09:37:53;27.70;;;21.50;;
12880;SDS011;6508;53.786;9.996;2024-03-07T09:40:22;23.52;;;20.05;;
12880;SDS011;6508;53.786;9.996;2024-03-07T09:42:55;23.45;;;18.63;;
12880;SDS011;6508;53.786;9.996;2024-03-07T09:45:28;23.10;;;18.50;;
12880;SDS011;6508;53.786;9.996;2024-03-07T09:47:56;24.67;;;19.58;;
12880;SDS011;6508;53.786;9.996;2024-03-07T09:50:25;21.95;;;19.00;;
12880;SDS011;6508;53.786;9.996;2024-03-07T09:52:54;30.98;;;25.67;;
12880;SDS011;6508;53.786;9.996;2024-03-07T09:55:22;22.48;;;19.55;;
12880;SDS011;6508;53.786;9.996;2024-03-07T09:57:54;30.05;;;24.60;;
12880;SDS011;6508;53.786;9.996;2024-03-07T10:00:24;31.17;;;24.67;;
12880;SDS011;6508;53.786;9.996;2024-03-07T10:02:54;45.55;;;29.25;;
12880;SDS011;6508;53.786;9.996;2024-03-07T10:05:25;47.92;;;31.33;;
12880;SDS011;6508;53.786;9.996;2024-03-07T10:07:54;42.90;;;30.83;;
12880;SDS011;6508;53.786;9.996;2024-03-07T10:10:22;41.65;;;30.40;;
12880;SDS011;6508;53.786;9.996;2024-03-07T10:12:50;34.38;;;28.13;;
12880;SDS011;6508;53.786;9.996;2024-03-07T10:15:20;32.67;;;24.85;;
12880;SDS011;6508;53.786;9.996;2024-03-07T10:17:49;42.78;;;29.55;;
12880;SDS011;6508;53.786;9.996;2024-03-07T10:20:17;42.65;;;29.95;;
12880;SDS011;6508;53.786;9.996;2024-03-07T10:22:47;30.23;;;23.27;;
12880;SDS011;6508;53.786;9.996;2024-03-07T10:25:16;30.73;;;24.85;;
12880;SDS011;6508;53.786;9.996;2024-03-07T10:27:45;34.38;;;24.77;;
12880;SDS011;6508;53.786;9.996;2024-03-07T10:30:15;26.85;;;22.73;;
12880;SDS011;6508;53.786;9.996;2024-03-07T10:32:48;28.40;;;22.58;;
12880;SDS011;6508;53.786;9.996;2024-03-07T10:35:20;29.48;;;21.13;;
12880;SDS011;6508;53.786;9.996;2024-03-07T10:37:49;24.27;;;19.10;;
12880;SDS011;6508;53.786;9.996;2024-03-07T10:40:16;25.55;;;20.50;;
12880;SDS011;6508;53.786;9.996;2024-03-07T10:42:45;23.35;;;19.25;;
12880;SDS011;6508;53.786;9.996;2024-03-07T10:45:18;23.55;;;19.25;;
12880;SDS011;6508;53.786;9.996;2024-03-07T10:47:52;21.92;;;19.52;;
12880;SDS011;6508;53.786;9.996;2024-03-07T10:50:29;27.20;;;22.52;;
12880;SDS011;6508;53.786;9.996;2024-03-07T10:52:59;28.55;;;22.30;;
12880;SDS011;6508;53.786;9.996;2024-03-07T10:55:31;24.33;;;20.10;;
12880;SDS011;6508;53.786;9.996;2024-03-07T10:58:04;24.48;;;19.17;;
12880;SDS011;6508;53.786;9.996;2024-03-07T11:00:37;23.17;;;20.75;;
12880;SDS011;6508;53.786;9.996;2024-03-07T11:03:13;25.10;;;19.65;;
12880;SDS011;6508;53.786;9.996;2024-03-07T11:05:41;24.98;;;18.65;;
12880;SDS011;6508;53.786;9.996;2024-03-07T11:08:10;24.42;;;19.38;;
12880;SDS011;6508;53.786;9.996;2024-03-07T11:10:39;28.65;;;21.23;;
12880;SDS011;6508;53.786;9.996;2024-03-07T11:13:08;29.48;;;21.95;;
12880;SDS011;6508;53.786;9.996;2024-03-07T11:15:40;33.63;;;24.67;;
12880;SDS011;6508;53.786;9.996;2024-03-07T11:18:09;34.33;;;26.48;;
12880;SDS011;6508;53.786;9.996;2024-03-07T11:20:41;28.10;;;21.33;;
12880;SDS011;6508;53.786;9.996;2024-03-07T11:23:25;25.30;;;19.98;;
12880;SDS011;6508;53.786;9.996;2024-03-07T11:25:56;30.77;;;21.58;;
12880;SDS011;6508;53.786;9.996;2024-03-07T11:28:30;25.27;;;19.90;;
12880;SDS011;6508;53.786;9.996;2024-03-07T11:31:06;34.67;;;24.00;;
12880;SDS011;6508;53.786;9.996;2024-03-07T11:33:36;43.15;;;27.75;;
12880;SDS011;6508;53.786;9.996;2024-03-07T11:36:09;33.35;;;23.45;;
12880;SDS011;6508;53.786;9.996;2024-03-07T11:38:38;30.17;;;22.25;;
12880;SDS011;6508;53.786;9.996;2024-03-07T11:41:11;27.00;;;22.35;;
12880;SDS011;6508;53.786;9.996;2024-03-07T11:43:40;23.90;;;20.02;;
12880;SDS011;6508;53.786;9.996;2024-03-07T11:46:10;27.20;;;22.55;;
12880;SDS011;6508;53.786;9.996;2024-03-07T11:48:43;28.67;;;23.80;;
12880;SDS011;6508;53.786;9.996;2024-03-07T11:51:13;29.95;;;23.85;;
12880;SDS011;6508;53.786;9.996;2024-03-07T11:53:43;32.33;;;24.88;;
12880;SDS011;6508;53.786;9.996;2024-03-07T11:56:14;26.15;;;21.60;;
12880;SDS011;6508;53.786;9.996;2024-03-07T11:58:44;26.33;;;20.13;;
12880;SDS011;6508;53.786;9.996;2024-03-07T12:01:12;33.50;;;22.85;;
12880;SDS011;6508;53.786;9.996;2024-03-07T12:03:40;28.55;;;21.33;;
12880;SDS011;6508;53.786;9.996;2024-03-07T12:06:09;25.13;;;19.35;;
12880;SDS011;6508;53.786;9.996;2024-03-07T12:08:41;49.78;;;31.98;;
12880;SDS011;6508;53.786;9.996;2024-03-07T12:11:10;34.75;;;25.50;;
12880;SDS011;6508;53.786;9.996;2024-03-07T12:13:42;27.85;;;20.52;;
12880;SDS011;6508;53.786;9.996;2024-03-07T12:16:09;31.50;;;22.67;;
12880;SDS011;6508;53.786;9.996;2024-03-07T12:18:37;28.08;;;21.20;;
12880;SDS011;6508;53.786;9.996;2024-03-07T12:21:05;37.70;;;24.63;;
12880;SDS011;6508;53.786;9.996;2024-03-07T12:23:37;39.65;;;24.15;;
12880;SDS011;6508;53.786;9.996;2024-03-07T12:26:09;41.83;;;28.75;;
12880;SDS011;6508;53.786;9.996;2024-03-07T12:28:43;35.63;;;23.52;;
12880;SDS011;6508;53.786;9.996;2024-03-07T12:31:16;39.17;;;26.75;;
12880;SDS011;6508;53.786;9.996;2024-03-07T12:33:43;47.80;;;29.60;;
12880;SDS011;6508;53.786;9.996;2024-03-07T12:36:18;46.85;;;28.40;;
12880;SDS011;6508;53.786;9.996;2024-03-07T12:38:52;50.05;;;30.05;;
12880;SDS011;6508;53.786;9.996;2024-03-07T12:41:21;38.40;;;25.55;;
12880;SDS011;6508;53.786;9.996;2024-03-07T12:43:50;54.35;;;31.10;;
12880;SDS011;6508;53.786;9.996;2024-03-07T12:46:17;44.60;;;27.70;;
12880;SDS011;6508;53.786;9.996;2024-03-07T12:48:46;47.13;;;31.45;;
12880;SDS011;6508;53.786;9.996;2024-03-07T12:51:16;44.55;;;25.70;;
12880;SDS011;6508;53.786;9.996;2024-03-07T12:53:46;47.58;;;26.83;;
12880;SDS011;6508;53.786;9.996;2024-03-07T12:56:15;35.85;;;23.27;;
12880;SDS011;6508;53.786;9.996;2024-03-07T12:58:47;39.20;;;25.08;;
12880;SDS011;6508;53.786;9.996;2024-03-07T13:01:17;39.65;;;24.52;;
12880;SDS011;6508;53.786;9.996;2024-03-07T13:03:46;33.70;;;21.35;;
12880;SDS011;6508;53.786;9.996;2024-03-07T13:06:15;32.78;;;21.27;;
12880;SDS011;6508;53.786;9.996;2024-03-07T13:08:46;31.15;;;21.38;;
12880;SDS011;6508;53.786;9.996;2024-03-07T13:11:13;29.80;;;20.35;;
12880;SDS011;6508;53.786;9.996;2024-03-07T13:13:42;28.42;;;21.27;;
12880;SDS011;6508;53.786;9.996;2024-03-07T13:16:11;29.95;;;21.35;;
12880;SDS011;6508;53.786;9.996;2024-03-07T13:18:39;25.08;;;19.40;;
12880;SDS011;6508;53.786;9.996;2024-03-07T13:21:07;30.23;;;20.42;;
12880;SDS011;6508;53.786;9.996;2024-03-07T13:23:37;32.20;;;20.25;;
12880;SDS011;6508;53.786;9.996;2024-03-07T13:26:06;26.27;;;20.42;;
12880;SDS011;6508;53.786;9.996;2024-03-07T13:28:43;25.48;;;18.80;;
12880;SDS011;6508;53.786;9.996;2024-03-07T13:31:12;26.73;;;18.80;;
12880;SDS011;6508;53.786;9.996;2024-03-07T13:33:43;27.50;;;19.85;;
12880;SDS011;6508;53.786;9.996;2024-03-07T13:36:11;28.15;;;20.02;;
12880;SDS011;6508;53.786;9.996;2024-03-07T13:38:40;29.08;;;18.83;;
12880;SDS011;6508;53.786;9.996;2024-03-07T13:41:08;26.98;;;20.33;;
12880;SDS011;6508;53.786;9.996;2024-03-07T13:43:38;26.50;;;19.08;;
12880;SDS011;6508;53.786;9.996;2024-03-07T13:46:05;24.77;;;18.92;;
12880;SDS011;6508;53.786;9.996;2024-03-07T13:48:34;26.42;;;19.30;;
12880;SDS011;6508;53.786;9.996;2024-03-07T13:51:03;26.65;;;19.73;;
12880;SDS011;6508;53.786;9.996;2024-03-07T13:53:34;29.00;;;20.05;;
12880;SDS011;6508;53.786;9.996;2024-03-07T13:56:23;23.95;;;18.40;;
12880;SDS011;6508;53.786;9.996;2024-03-07T13:59:07;24.50;;;18.02;;
12880;SDS011;6508;53.786;9.996;2024-03-07T14:01:41;24.83;;;18.65;;
12880;SDS011;6508;53.786;9.996;2024-03-07T14:04:22;24.33;;;16.17;;
12880;SDS011;6508;53.786;9.996;2024-03-07T14:06:58;27.90;;;18.10;;
12880;SDS011;6508;53.786;9.996;2024-03-07T14:09:44;23.85;;;18.00;;
12880;SDS011;6508;53.786;9.996;2024-03-07T14:12:24;20.73;;;17.35;;
12880;SDS011;6508;53.786;9.996;2024-03-07T14:17:52;22.73;;;19.50;;
12880;SDS011;6508;53.786;9.996;2024-03-07T14:23:18;26.73;;;18.77;;
12880;SDS011;6508;53.786;9.996;2024-03-07T14:25:50;26.50;;;19.08;;
12880;SDS011;6508;53.786;9.996;2024-03-07T14:28:42;25.08;;;20.67;;
12880;SDS011;6508;53.786;9.996;2024-03-07T14:31:13;27.15;;;20.35;;
12880;SDS011;6508;53.786;9.996;2024-03-07T14:33:47;23.30;;;19.17;;
12880;SDS011;6508;53.786;9.996;2024-03-07T14:36:16;26.70;;;20.40;;
12880;SDS011;6508;53.786;9.996;2024-03-07T14:38:48;25.77;;;20.08;;
12880;SDS011;6508;53.786;9.996;2024-03-07T14:41:17;24.20;;;19.23;;
12880;SDS011;6508;53.786;9.996;2024-03-07T14:43:44;24.52;;;19.75;;
12880;SDS011;6508;53.786;9.996;2024-03-07T14:46:13;28.08;;;19.35;;
12880;SDS011;6508;53.786;9.996;2024-03-07T14:48:41;24.50;;;18.27;;
12880;SDS011;6508;53.786;9.996;2024-03-07T14:51:11;23.02;;;17.67;;